Time;durP1;ratioP1;P1;durP2;ratioP2;P2;SDS_P1;SDS_P2;PMS_P1;PMS_P2;Temp;Humidity;BMP_temperature;BMP_pressure;BME280_temperature;BME280_humidity;BME280_pressure;Samples;Min_cycle;Max_cycle;Signal;HPM_P1;HPM_P2
2022/04/17 00:00:17;;;;;;;2.53;1.08;;;3.60;99.90;;;;;;5040964;28;20140;-64
2022/04/17 00:02:44;;;;;;;3.65;0.93;;;3.60;99.90;;;;;;5041542;28;20056;-64
2022/04/17 00:05:11;;;;;;;3.35;1.42;;;3.60;99.90;;;;;;5041622;28;20029;-66
2022/04/17 00:07:38;;;;;;;1.73;0.90;;;3.50;99.90;;;;;;5034223;28;20128;-63
2022/04/17 00:10:08;;;;;;;1.63;1.10;;;3.50;99.90;;;;;;5043798;28;20598;-63
2022/04/17 00:12:36;;;;;;;1.20;0.80;;;3.50;99.90;;;;;;5037767;28;20053;-64
2022/04/17 00:15:03;;;;;;;1.83;0.88;;;3.60;99.90;;;;;;5031493;28;20128;-63
2022/04/17 00:17:30;;;;;;;2.88;0.77;;;3.60;99.90;;;;;;5043356;28;20148;-64
2022/04/17 00:19:57;;;;;;;0.90;0.60;;;3.60;99.90;;;;;;5041691;28;20055;-67
2022/04/17 00:22:25;;;;;;;0.75;0.60;;;3.60;99.90;;;;;;5043412;28;20049;-63
2022/04/17 00:24:52;;;;;;;1.10;0.68;;;3.60;99.90;;;;;;5042214;28;20064;-63
2022/04/17 00:27:19;;;;;;;0.90;0.60;;;3.60;99.90;;;;;;5034768;28;20037;-64
2022/04/17 00:29:46;;;;;;;0.98;0.70;;;3.60;99.90;;;;;;5056428;28;20045;-65
2022/04/17 00:32:13;;;;;;;0.75;0.70;;;3.60;99.90;;;;;;5040607;28;20148;-67
2022/04/17 00:34:40;;;;;;;1.80;0.77;;;3.60;99.90;;;;;;5041364;28;20113;-67
2022/04/17 00:37:07;;;;;;;1.02;0.73;;;3.60;99.90;;;;;;5044723;28;20075;-62
2022/04/17 00:39:34;;;;;;;1.30;0.82;;;3.60;99.90;;;;;;5034954;28;20045;-63
2022/04/17 00:42:04;;;;;;;2.53;0.70;;;3.60;99.90;;;;;;5060021;28;20160;-67
2022/04/17 00:44:32;;;;;;;0.60;0.60;;;3.60;99.90;;;;;;5040147;28;20068;-64
2022/04/17 00:46:59;;;;;;;2.67;1.05;;;3.70;99.90;;;;;;5038181;28;20072;-64
2022/04/17 00:49:26;;;;;;;1.65;0.65;;;3.70;99.90;;;;;;5039345;28;20143;-66
2022/04/17 00:51:54;;;;;;;1.10;0.68;;;3.70;99.90;;;;;;5042760;28;20168;-63
2022/04/17 00:54:22;;;;;;;0.98;0.60;;;3.70;99.90;;;;;;5038709;28;20048;-64
2022/04/17 00:56:50;;;;;;;2.20;0.77;;;3.70;99.90;;;;;;5036345;28;20415;-63
2022/04/17 00:59:17;;;;;;;2.35;0.77;;;3.70;99.90;;;;;;5043196;28;20075;-63
2022/04/17 01:01:44;;;;;;;0.60;0.60;;;3.70;99.90;;;;;;5046613;28;20151;-63
2022/04/17 01:04:12;;;;;;;1.58;0.73;;;3.70;99.90;;;;;;5042313;28;20343;-69
2022/04/17 01:06:42;;;;;;;2.53;0.60;;;3.80;99.90;;;;;;5032300;28;20064;-65
2022/04/17 01:09:09;;;;;;;1.48;0.45;;;3.80;99.90;;;;;;5042696;28;20029;-65
2022/04/17 01:11:40;;;;;;;0.75;0.75;;;3.80;99.90;;;;;;5035445;28;20382;-64
2022/04/17 01:14:08;;;;;;;2.75;1.10;;;3.80;99.90;;;;;;5031686;28;20048;-63
2022/04/17 01:16:36;;;;;;;2.08;0.63;;;3.80;99.90;;;;;;5043331;28;20071;-64
2022/04/17 01:19:11;;;;;;;0.88;0.60;;;3.70;99.90;;;;;;5040195;28;20071;-63
2022/04/17 01:21:42;;;;;;;1.98;0.75;;;3.70;99.90;;;;;;5042584;28;20045;-64
2022/04/17 01:27:03;;;;;;;1.38;0.98;;;3.60;99.90;;;;;;5034863;28;20134;-64
2022/04/17 01:29:36;;;;;;;0.63;0.55;;;3.60;99.90;;;;;;5026471;28;20146;-64
2022/04/17 01:32:06;;;;;;;1.95;0.63;;;3.50;99.90;;;;;;5033469;28;20041;-62
2022/04/17 01:34:33;;;;;;;3.07;1.13;;;3.50;99.90;;;;;;5033986;28;20056;-64
2022/04/17 01:37:01;;;;;;;1.00;0.60;;;3.50;99.90;;;;;;5030666;28;20393;-63
2022/04/17 01:39:29;;;;;;;2.25;1.23;;;3.40;99.90;;;;;;5045940;28;20123;-64
2022/04/17 01:41:57;;;;;;;0.90;0.45;;;3.40;99.90;;;;;;5046325;28;20491;-67
2022/04/17 01:44:27;;;;;;;6.43;1.00;;;3.30;99.90;;;;;;5038792;28;20072;-63
2022/04/17 01:46:54;;;;;;;1.38;0.80;;;3.30;99.90;;;;;;5045352;28;20448;-64
2022/04/17 01:49:21;;;;;;;1.45;0.93;;;3.20;99.90;;;;;;5034277;28;20124;-69
2022/04/17 01:51:51;;;;;;;1.70;0.88;;;3.20;99.90;;;;;;5032900;28;20037;-63
2022/04/17 01:54:18;;;;;;;2.40;0.52;;;3.10;99.90;;;;;;5039352;28;20092;-64
2022/04/17 01:56:49;;;;;;;1.60;0.70;;;3.10;99.90;;;;;;5044915;28;20045;-63
2022/04/17 01:59:17;;;;;;;;;;;3.10;99.90;;;;;;5042192;28;20143;-65
2022/04/17 02:01:44;;;;;;;1.20;0.70;;;3.10;99.90;;;;;;5011078;28;19955;-63
2022/04/17 02:04:12;;;;;;;2.33;0.80;;;3.00;99.90;;;;;;5041459;28;20033;-64
2022/04/17 02:06:39;;;;;;;1.00;0.90;;;3.00;99.90;;;;;;5041933;28;20104;-63
2022/04/17 02:09:11;;;;;;;1.60;0.60;;;3.00;99.90;;;;;;5035103;28;20152;-66
2022/04/17 02:11:39;;;;;;;1.92;1.30;;;2.90;99.90;;;;;;5035789;28;20037;-64
2022/04/17 02:14:06;;;;;;;1.20;0.88;;;2.90;99.90;;;;;;5036094;28;20121;-62
2022/04/17 02:16:33;;;;;;;1.67;0.85;;;2.90;99.90;;;;;;5044538;28;20069;-63
2022/04/17 02:19:00;;;;;;;1.67;0.93;;;2.80;99.90;;;;;;5034975;28;20163;-62
2022/04/17 02:21:28;;;;;;;1.40;0.80;;;2.70;99.90;;;;;;5035275;28;20029;-63
2022/04/17 02:23:55;;;;;;;0.95;0.73;;;2.70;99.90;;;;;;5043674;28;20091;-64
2022/04/17 02:26:23;;;;;;;3.60;1.27;;;2.60;99.90;;;;;;5044726;28;20710;-63
2022/04/17 02:28:49;;;;;;;0.90;0.70;;;2.60;99.90;;;;;;5030132;28;20220;-64
2022/04/17 02:31:18;;;;;;;2.13;0.75;;;2.50;99.90;;;;;;5046515;28;20109;-63
2022/04/17 02:33:44;;;;;;;1.48;0.90;;;2.50;99.90;;;;;;5030901;28;20088;-65
2022/04/17 02:36:11;;;;;;;1.30;0.88;;;2.50;99.90;;;;;;5027884;28;20461;-63
2022/04/17 02:38:38;;;;;;;1.33;0.82;;;2.40;99.90;;;;;;5027261;28;20399;-64
2022/04/17 02:41:05;;;;;;;5.22;1.60;;;2.40;99.90;;;;;;5030741;28;20122;-63
2022/04/17 02:43:32;;;;;;;1.27;1.17;;;2.40;99.90;;;;;;5036729;28;20053;-63
2022/04/17 02:45:59;;;;;;;1.52;0.90;;;2.40;99.90;;;;;;5026000;28;20125;-64
2022/04/17 02:48:26;;;;;;;1.80;0.68;;;2.40;99.90;;;;;;5026599;28;20877;-64
2022/04/17 02:50:55;;;;;;;1.58;1.10;;;2.40;99.90;;;;;;5028679;28;20128;-63
2022/04/17 02:53:24;;;;;;;1.05;1.00;;;2.40;99.90;;;;;;5031357;28;20155;-64
2022/04/17 02:55:51;;;;;;;1.05;0.95;;;2.40;99.90;;;;;;5044546;28;20162;-63
2022/04/17 02:58:18;;;;;;;2.13;1.10;;;2.40;99.90;;;;;;5032609;28;20509;-63
2022/04/17 03:06:16;;;;;;;1.48;1.15;;;2.50;99.90;;;;;;5029314;28;20100;-64
2022/04/17 03:08:43;;;;;;;1.52;1.10;;;2.50;99.90;;;;;;5008738;28;20108;-63
2022/04/17 03:11:11;;;;;;;2.70;1.48;;;2.50;99.90;;;;;;5034438;28;20118;-64
2022/04/17 03:13:37;;;;;;;1.85;1.33;;;2.50;99.90;;;;;;5033136;28;20069;-64
2022/04/17 03:16:05;;;;;;;3.53;1.35;;;2.60;99.90;;;;;;5029795;28;20033;-66
2022/04/17 03:18:32;;;;;;;1.40;1.30;;;2.60;99.90;;;;;;5028933;28;20061;-63
2022/04/17 03:21:00;;;;;;;2.10;1.20;;;2.60;99.90;;;;;;5031087;28;20088;-64
2022/04/17 03:23:27;;;;;;;2.47;1.15;;;2.60;99.90;;;;;;5029921;28;20057;-64
2022/04/17 03:25:54;;;;;;;2.30;1.17;;;2.70;99.90;;;;;;5025631;28;20197;-63
2022/04/17 03:28:21;;;;;;;1.70;1.45;;;2.70;99.90;;;;;;5029373;28;20151;-63
2022/04/17 03:30:48;;;;;;;5.63;1.38;;;2.80;99.90;;;;;;5028336;28;20029;-63
2022/04/17 03:33:15;;;;;;;3.17;1.20;;;2.80;99.90;;;;;;5033954;28;20119;-65
2022/04/17 03:35:42;;;;;;;1.40;1.30;;;2.80;99.90;;;;;;5029526;28;20052;-63
2022/04/17 03:38:09;;;;;;;0.85;0.82;;;2.80;99.90;;;;;;5037044;28;20026;-63
2022/04/17 03:40:36;;;;;;;2.03;1.23;;;2.90;99.90;;;;;;5040678;28;20761;-67
2022/04/17 03:43:04;;;;;;;2.35;1.40;;;2.90;99.90;;;;;;5038120;28;20037;-62
2022/04/17 03:45:31;;;;;;;1.38;1.25;;;2.90;99.90;;;;;;5044050;28;20114;-63
2022/04/17 03:47:59;;;;;;;2.55;1.30;;;2.90;99.90;;;;;;5032200;28;20120;-66
2022/04/17 03:50:26;;;;;;;1.95;1.50;;;2.90;99.90;;;;;;5032283;28;20135;-64
2022/04/17 03:52:54;;;;;;;1.88;1.38;;;2.90;99.90;;;;;;5035083;28;20037;-63
2022/04/17 03:55:21;;;;;;;2.13;1.40;;;2.90;99.90;;;;;;5043635;28;20226;-63
2022/04/17 03:57:48;;;;;;;4.68;1.40;;;2.90;99.90;;;;;;5042826;28;20107;-63
2022/04/17 04:00:16;;;;;;;1.80;1.48;;;2.80;99.90;;;;;;5034789;28;20042;-63
2022/04/17 04:02:44;;;;;;;2.90;1.73;;;2.90;99.90;;;;;;5040403;28;20040;-63
2022/04/17 04:05:11;;;;;;;2.63;1.83;;;2.90;99.90;;;;;;5042888;28;20076;-63
2022/04/17 04:07:39;;;;;;;1.40;1.30;;;2.90;99.90;;;;;;5040175;28;20052;-64
2022/04/17 04:10:07;;;;;;;3.13;1.40;;;2.90;99.90;;;;;;5037460;28;20181;-64
2022/04/17 04:12:36;;;;;;;2.53;1.25;;;2.90;99.90;;;;;;5036951;28;20048;-63
2022/04/17 04:15:04;;;;;;;1.23;0.88;;;2.90;99.90;;;;;;5026734;28;20092;-62
2022/04/17 04:17:31;;;;;;;1.67;1.25;;;2.90;99.90;;;;;;5045808;28;20115;-66
2022/04/17 04:19:57;;;;;;;1.75;1.48;;;2.90;99.90;;;;;;5043367;28;20156;-64
2022/04/17 04:22:25;;;;;;;1.33;0.70;;;2.90;99.90;;;;;;5041363;28;20135;-65
2022/04/17 04:24:52;;;;;;;2.53;1.13;;;2.90;99.90;;;;;;5042329;28;20041;-66
2022/04/17 04:30:05;;;;;;;1.42;0.90;;;2.90;99.90;;;;;;5030613;28;20060;-65
2022/04/17 04:32:31;;;;;;;2.60;1.50;;;2.90;99.90;;;;;;5034283;28;20143;-64
2022/04/17 04:35:04;;;;;;;2.83;1.15;;;2.90;99.90;;;;;;5039998;28;20106;-62
2022/04/17 04:37:32;;;;;;;2.05;1.70;;;3.00;99.90;;;;;;5025972;28;20091;-66
2022/04/17 04:39:59;;;;;;;2.38;1.23;;;2.90;99.90;;;;;;5031271;28;20052;-63
2022/04/17 04:42:27;;;;;;;1.40;1.30;;;3.00;99.90;;;;;;5035867;28;20060;-67
2022/04/17 04:47:40;;;;;;;2.13;1.35;;;3.00;99.90;;;;;;5034560;28;20044;-63
2022/04/17 04:50:07;;;;;;;1.55;1.10;;;3.00;99.90;;;;;;5040769;28;20077;-66
2022/04/17 04:52:37;;;;;;;1.48;1.38;;;3.10;99.90;;;;;;5029950;28;20490;-63
2022/04/17 04:55:05;;;;;;;1.92;1.13;;;3.10;99.90;;;;;;5028562;28;20108;-63
2022/04/17 04:57:35;;;;;;;1.27;1.17;;;3.10;99.90;;;;;;5028396;28;20132;-64
2022/04/17 05:00:05;;;;;;;3.20;1.48;;;3.10;99.90;;;;;;5043882;28;20071;-64
2022/04/17 05:02:34;;;;;;;2.25;1.30;;;3.20;99.90;;;;;;5040345;28;20493;-63
2022/04/17 05:05:01;;;;;;;1.55;1.30;;;3.30;99.90;;;;;;5042815;28;20140;-63
2022/04/17 05:07:27;;;;;;;1.50;1.00;;;3.30;99.90;;;;;;5039149;28;20144;-63
2022/04/17 05:09:54;;;;;;;9.10;1.75;;;3.40;99.90;;;;;;5041526;28;20415;-63
2022/04/17 05:12:22;;;;;;;1.63;1.33;;;3.50;99.90;;;;;;5041714;28;20478;-63
2022/04/17 05:14:49;;;;;;;2.20;1.45;;;3.50;99.90;;;;;;5036842;28;20043;-63
2022/04/17 05:17:16;;;;;;;3.55;1.40;;;3.50;99.90;;;;;;5046762;28;20059;-63
2022/04/17 05:19:43;;;;;;;2.00;1.33;;;3.60;99.90;;;;;;5038310;28;20526;-63
2022/04/17 05:22:16;;;;;;;1.98;1.02;;;3.70;99.90;;;;;;5033917;28;20047;-64
2022/04/17 05:24:44;;;;;;;2.05;1.75;;;3.80;99.90;;;;;;5046086;28;20147;-64
2022/04/17 05:27:12;;;;;;;2.00;1.33;;;3.80;99.90;;;;;;5044720;28;20076;-63
2022/04/17 05:29:42;;;;;;;2.72;1.92;;;3.90;99.90;;;;;;5036475;28;20124;-63
2022/04/17 05:32:09;;;;;;;7.13;2.83;;;4.00;99.90;;;;;;5045971;28;20219;-66
2022/04/17 05:34:36;;;;;;;5.40;1.98;;;4.10;99.90;;;;;;5036954;28;20084;-63
2022/04/17 05:37:04;;;;;;;5.00;1.85;;;4.20;99.90;;;;;;5032545;28;20493;-65
2022/04/17 05:39:31;;;;;;;1.42;1.33;;;4.40;99.90;;;;;;5040054;28;20142;-64
2022/04/17 05:41:59;;;;;;;2.30;1.58;;;4.40;99.90;;;;;;5046440;28;20076;-64
2022/04/17 05:44:29;;;;;;;1.63;1.20;;;4.50;99.90;;;;;;5042923;28;20527;-63
2022/04/17 05:46:59;;;;;;;2.22;1.67;;;4.60;99.90;;;;;;5044360;28;20136;-63
2022/04/17 05:49:26;;;;;;;1.70;1.50;;;4.70;99.90;;;;;;5034168;28;20140;-63
2022/04/17 05:51:57;;;;;;;2.30;1.50;;;4.80;99.90;;;;;;5045210;28;20288;-63
2022/04/17 05:54:24;;;;;;;4.35;1.50;;;4.90;99.90;;;;;;5043091;28;20095;-66
2022/04/17 05:56:51;;;;;;;2.28;1.50;;;5.00;99.90;;;;;;5032396;28;20601;-63
2022/04/17 05:59:18;;;;;;;4.05;2.47;;;5.10;99.90;;;;;;5036607;28;20042;-63
2022/04/17 06:01:46;;;;;;;1.73;1.58;;;5.20;99.90;;;;;;5041503;28;20140;-64
2022/04/17 06:04:14;;;;;;;1.50;1.40;;;5.30;99.90;;;;;;5036420;28;20864;-63
2022/04/17 06:06:41;;;;;;;2.85;1.80;;;5.30;99.90;;;;;;5040314;28;20122;-63
2022/04/17 06:09:08;;;;;;;3.33;1.67;;;5.40;99.90;;;;;;5040761;28;20074;-63
2022/04/17 06:11:35;;;;;;;2.78;1.58;;;5.50;99.90;;;;;;5044799;28;20044;-62
2022/04/17 06:14:01;;;;;;;2.00;1.33;;;5.60;99.90;;;;;;5044127;28;20120;-65
2022/04/17 06:16:28;;;;;;;1.67;1.58;;;5.90;99.90;;;;;;5044295;28;20103;-64
2022/04/17 06:18:55;;;;;;;3.30;1.67;;;6.00;99.90;;;;;;5042732;28;20094;-64
2022/04/17 06:21:22;;;;;;;1.77;1.67;;;6.10;99.90;;;;;;5045084;28;20055;-64
2022/04/17 06:23:49;;;;;;;5.28;1.35;;;6.20;99.90;;;;;;5031761;28;20038;-62
2022/04/17 06:26:16;;;;;;;4.15;1.60;;;6.30;99.90;;;;;;5033830;28;20065;-64
2022/04/17 06:28:43;;;;;;;1.55;1.13;;;6.40;99.90;;;;;;5041701;28;20468;-64
2022/04/17 06:31:10;;;;;;;1.48;1.38;;;6.40;99.90;;;;;;5043983;28;20079;-63
2022/04/17 06:33:37;;;;;;;3.67;1.02;;;6.50;99.90;;;;;;5042348;28;20060;-66
2022/04/17 06:36:04;;;;;;;1.10;1.00;;;6.60;99.90;;;;;;5035093;28;20386;-63
2022/04/17 06:38:30;;;;;;;1.88;1.33;;;6.70;99.90;;;;;;5037840;28;20069;-63
2022/04/17 06:40:57;;;;;;;1.33;1.23;;;6.70;99.90;;;;;;5039825;28;20148;-64
2022/04/17 06:43:24;;;;;;;2.25;1.17;;;6.90;99.90;;;;;;5044557;28;20130;-64
2022/04/17 06:45:51;;;;;;;1.25;1.10;;;6.90;99.90;;;;;;5036381;28;20040;-63
2022/04/17 06:48:21;;;;;;;1.58;1.20;;;7.10;99.90;;;;;;5031070;28;20136;-64
2022/04/17 06:50:49;;;;;;;1.63;1.27;;;7.10;99.90;;;;;;5039362;28;20145;-63
2022/04/17 06:53:17;;;;;;;1.17;1.05;;;7.20;99.90;;;;;;5041645;28;20140;-64
2022/04/17 06:55:44;;;;;;;4.70;2.58;;;7.30;99.90;;;;;;5034313;28;20046;-64
2022/04/17 06:58:11;;;;;;;1.40;1.00;;;7.40;99.90;;;;;;5034766;28;20430;-64
2022/04/17 07:00:38;;;;;;;2.85;1.35;;;7.60;99.90;;;;;;5042791;28;20650;-66
2022/04/17 07:03:05;;;;;;;1.15;1.00;;;7.70;99.90;;;;;;5037389;28;20126;-63
2022/04/17 07:05:33;;;;;;;2.45;1.30;;;7.80;99.90;;;;;;5044115;28;20049;-63
2022/04/17 07:08:05;;;;;;;1.45;1.35;;;7.80;99.90;;;;;;5044614;28;20136;-63
2022/04/17 07:10:37;;;;;;;1.33;1.20;;;7.80;99.90;;;;;;5039092;28;20444;-64
2022/04/17 07:13:05;;;;;;;1.27;1.17;;;7.90;99.90;;;;;;5037424;28;20053;-64
2022/04/17 07:15:32;;;;;;;4.60;1.02;;;8.00;99.90;;;;;;5043899;28;20511;-64
2022/04/17 07:17:59;;;;;;;1.48;1.02;;;8.00;99.90;;;;;;5045175;28;20159;-64
2022/04/17 07:20:26;;;;;;;1.17;1.00;;;8.10;99.90;;;;;;5041870;28;20041;-67
2022/04/17 07:22:53;;;;;;;0.73;0.73;;;8.20;99.90;;;;;;5041422;28;20474;-64
2022/04/17 07:25:20;;;;;;;2.60;1.45;;;8.40;99.90;;;;;;5037642;28;20041;-62
2022/04/17 07:27:49;;;;;;;1.35;1.17;;;8.50;99.90;;;;;;5040669;28;20049;-64
2022/04/17 07:30:25;;;;;;;7.45;1.85;;;8.50;99.90;;;;;;5036810;28;20116;-64
2022/04/17 07:32:56;;;;;;;4.15;1.73;;;8.60;99.90;;;;;;5043007;28;20055;-64
2022/04/17 07:35:25;;;;;;;1.92;0.88;;;8.70;99.90;;;;;;5038965;28;20041;-63
2022/04/17 07:37:54;;;;;;;2.22;1.27;;;8.80;99.90;;;;;;5032642;28;20841;-63
2022/04/17 07:40:25;;;;;;;1.48;1.35;;;8.90;99.90;;;;;;5029044;28;20073;-64
2022/04/17 07:42:53;;;;;;;1.38;1.13;;;9.00;99.90;;;;;;5024378;28;20160;-64
2022/04/17 07:45:21;;;;;;;0.98;0.85;;;9.20;99.90;;;;;;5032184;28;20140;-63
2022/04/17 07:47:49;;;;;;;1.00;0.90;;;9.30;99.90;;;;;;5031905;28;20405;-66
2022/04/17 07:50:24;;;;;;;2.00;1.88;;;9.50;99.90;;;;;;5042252;28;20094;-63
2022/04/17 07:52:53;;;;;;;1.42;1.13;;;9.60;99.90;;;;;;5027452;28;20107;-64
2022/04/17 07:55:21;;;;;;;0.88;0.70;;;9.80;99.90;;;;;;5028570;28;20045;-63
2022/04/17 08:00:31;;;;;;;2.17;1.10;;;10.10;99.90;;;;;;5030534;28;20152;-63
2022/04/17 08:03:35;;;;;;;2.42;1.02;;;10.10;99.90;;;;;;5022235;28;20083;-64
2022/04/17 08:06:05;;;;;;;3.15;1.50;;;10.20;99.90;;;;;;5032047;28;20483;-63
2022/04/17 08:08:37;;;;;;;0.70;0.70;;;10.30;99.90;;;;;;5044901;28;20049;-63
2022/04/17 08:11:05;;;;;;;2.67;1.13;;;10.40;99.90;;;;;;5031746;28;20065;-63
2022/04/17 08:13:32;;;;;;;1.63;1.27;;;10.40;99.90;;;;;;5043368;28;20118;-63
2022/04/17 08:16:00;;;;;;;0.70;0.70;;;10.50;99.90;;;;;;5044380;28;20072;-64
2022/04/17 08:18:27;;;;;;;2.47;1.15;;;10.60;99.90;;;;;;5033345;28;20150;-63
2022/04/17 08:20:54;;;;;;;1.77;0.93;;;10.60;99.90;;;;;;5041096;28;20110;-64
2022/04/17 08:23:21;;;;;;;4.47;1.33;;;10.80;99.90;;;;;;5042981;28;20072;-64
2022/04/17 08:25:48;;;;;;;2.50;0.82;;;10.80;99.90;;;;;;5027449;28;20111;-64
2022/04/17 08:28:15;;;;;;;1.70;0.90;;;10.90;99.90;;;;;;5040803;28;20102;-64
2022/04/17 08:30:42;;;;;;;0.82;0.82;;;11.00;99.90;;;;;;5033785;28;20163;-63
2022/04/17 08:33:09;;;;;;;1.20;0.85;;;11.20;99.90;;;;;;5037201;28;20164;-64
2022/04/17 08:35:36;;;;;;;1.05;0.80;;;11.20;99.90;;;;;;5036693;28;20041;-63
2022/04/17 08:38:04;;;;;;;2.05;0.95;;;11.20;99.90;;;;;;5041199;28;20041;-64
2022/04/17 08:40:31;;;;;;;1.08;0.60;;;11.30;99.90;;;;;;5041444;28;20052;-63
2022/04/17 08:42:59;;;;;;;2.92;1.23;;;11.40;99.90;;;;;;5044370;28;20148;-64
2022/04/17 08:45:27;;;;;;;0.98;0.60;;;11.50;99.90;;;;;;5036421;28;20083;-63
2022/04/17 08:47:55;;;;;;;2.28;1.33;;;11.40;99.90;;;;;;5041996;28;20041;-64
2022/04/17 08:50:22;;;;;;;1.33;0.88;;;11.40;99.90;;;;;;5046134;28;20737;-64
2022/04/17 08:52:51;;;;;;;1.20;1.10;;;11.50;99.00;;;;;;5032007;28;20073;-64
2022/04/17 08:55:19;;;;;;;3.03;1.33;;;11.50;98.40;;;;;;5045863;28;20521;-66
2022/04/17 08:57:46;;;;;;;1.17;1.05;;;11.50;98.60;;;;;;5044389;28;20053;-64
2022/04/17 09:00:16;;;;;;;0.98;0.88;;;11.60;98.80;;;;;;5045963;28;20045;-63
2022/04/17 09:02:45;;;;;;;1.65;0.73;;;11.80;98.90;;;;;;5038185;28;20063;-64
2022/04/17 09:05:15;;;;;;;1.58;1.17;;;11.70;98.10;;;;;;5028255;28;20141;-63
2022/04/17 09:07:50;;;;;;;1.38;1.13;;;11.80;97.40;;;;;;5044894;28;20156;-65
2022/04/17 09:10:31;;;;;;;0.95;0.75;;;12.00;97.70;;;;;;5039983;28;20514;-64
2022/04/17 09:13:00;;;;;;;1.38;0.60;;;12.20;98.70;;;;;;5033618;28;20752;-66
2022/04/17 09:15:33;;;;;;;1.20;0.95;;;12.30;97.10;;;;;;5037235;28;20129;-63
2022/04/17 09:18:00;;;;;;;1.15;0.90;;;12.40;97.20;;;;;;5044977;28;20049;-64
2022/04/17 09:20:28;;;;;;;1.10;0.73;;;12.50;97.80;;;;;;5042855;28;20051;-63
2022/04/17 09:22:58;;;;;;;1.10;0.68;;;12.60;98.10;;;;;;5038292;28;20486;-64
2022/04/17 09:25:26;;;;;;;5.43;1.27;;;12.60;97.80;;;;;;5042973;28;20446;-64
2022/04/17 09:28:04;;;;;;;2.28;0.98;;;12.20;99.90;;;;;;5040815;28;20045;-63
2022/04/17 09:30:32;;;;;;;1.85;1.10;;;12.00;99.90;;;;;;5043074;28;20525;-63
2022/04/17 09:33:09;;;;;;;1.75;0.82;;;11.10;99.90;;;;;;5041962;28;20040;-65
2022/04/17 09:35:37;;;;;;;5.88;1.30;;;10.80;99.90;;;;;;5039890;28;20060;-62
2022/04/17 09:38:06;;;;;;;1.50;1.05;;;10.80;99.90;;;;;;5038962;28;20041;-63
2022/04/17 09:40:33;;;;;;;1.88;1.20;;;10.70;99.90;;;;;;5044366;28;20067;-63
2022/04/17 09:43:33;;;;;;;0.73;0.55;;;10.70;99.90;;;;;;5043960;28;20143;-64
2022/04/17 09:46:04;;;;;;;2.43;0.90;;;10.70;99.90;;;;;;5022638;28;20064;-63
2022/04/17 09:48:36;;;;;;;0.95;0.77;;;10.60;99.90;;;;;;5032965;28;20561;-62
2022/04/17 09:51:23;;;;;;;0.93;0.82;;;10.50;99.90;;;;;;5029199;28;20040;-63
2022/04/17 09:54:09;;;;;;;5.00;1.63;;;10.60;99.90;;;;;;5038770;28;20053;-64
2022/04/17 09:56:41;;;;;;;1.15;0.98;;;10.50;99.90;;;;;;5046341;28;20044;-63
2022/04/17 09:59:19;;;;;;;3.72;1.50;;;10.40;99.90;;;;;;5034027;28;20091;-64
2022/04/17 10:01:50;;;;;;;3.17;0.85;;;10.20;99.90;;;;;;5043782;28;20076;-65
2022/04/17 10:04:21;;;;;;;4.30;1.13;;;10.20;99.90;;;;;;5034624;28;20041;-64
2022/04/17 10:06:50;;;;;;;3.88;0.90;;;10.10;99.90;;;;;;5036037;28;20052;-63
2022/04/17 10:09:18;;;;;;;0.63;0.63;;;10.10;99.90;;;;;;5036967;28;20057;-65
2022/04/17 10:11:45;;;;;;;2.50;1.13;;;9.80;99.90;;;;;;5045229;28;20427;-66
2022/04/17 10:14:13;;;;;;;3.05;0.70;;;9.60;99.90;;;;;;5044666;28;20132;-68
2022/04/17 10:16:42;;;;;;;2.30;0.38;;;9.50;99.90;;;;;;5036683;28;20079;-64
2022/04/17 10:19:14;;;;;;;1.38;0.40;;;9.50;99.90;;;;;;5043530;28;20424;-65
2022/04/17 10:21:41;;;;;;;1.52;0.50;;;9.30;99.90;;;;;;5039207;28;20084;-64
2022/04/17 10:24:15;;;;;;;1.08;0.75;;;9.00;99.90;;;;;;5044919;28;20122;-64
2022/04/17 10:26:50;;;;;;;1.00;0.73;;;8.90;99.90;;;;;;5040601;28;20044;-63
2022/04/17 10:29:41;;;;;;;1.27;0.60;;;8.90;99.90;;;;;;5038266;28;20092;-63
2022/04/17 10:32:33;;;;;;;0.82;0.68;;;8.60;99.90;;;;;;5044060;28;20075;-63
2022/04/17 10:35:15;;;;;;;1.08;0.98;;;8.60;99.90;;;;;;5039664;28;20122;-63
2022/04/17 10:38:00;;;;;;;1.80;0.50;;;8.50;99.90;;;;;;5036064;28;20195;-64
2022/04/17 10:40:28;;;;;;;2.22;0.90;;;8.50;99.90;;;;;;5040199;28;20044;-62
2022/04/17 10:42:57;;;;;;;3.17;0.75;;;8.50;99.90;;;;;;5038673;28;20040;-63
2022/04/17 10:45:23;;;;;;;1.83;1.05;;;8.50;99.90;;;;;;5042116;28;20074;-64
2022/04/17 10:48:05;;;;;;;1.85;1.10;;;8.50;99.90;;;;;;5035943;28;20071;-65
2022/04/17 10:50:51;;;;;;;3.30;1.42;;;8.50;99.90;;;;;;5043364;28;20413;-63
2022/04/17 10:53:28;;;;;;;2.75;1.40;;;8.50;99.90;;;;;;5042335;28;20076;-62
2022/04/17 10:56:09;;;;;;;2.88;1.20;;;8.40;99.90;;;;;;5042766;28;20044;-66
2022/04/17 10:58:44;;;;;;;1.80;1.17;;;8.30;99.90;;;;;;5036442;28;20065;-63
2022/04/17 11:01:12;;;;;;;3.53;0.65;;;8.30;99.90;;;;;;5027839;28;20045;-64
2022/04/17 11:03:49;;;;;;;0.68;0.60;;;8.20;99.90;;;;;;5043874;28;20069;-64
2022/04/17 11:06:31;;;;;;;1.17;0.68;;;8.20;99.90;;;;;;5042972;28;20041;-63
2022/04/17 11:09:14;;;;;;;4.28;1.02;;;8.20;99.90;;;;;;5041782;28;20045;-64
2022/04/17 11:11:43;;;;;;;6.50;1.77;;;8.10;99.90;;;;;;5045200;28;20065;-64
2022/04/17 11:14:16;;;;;;;1.53;1.10;;;8.00;99.90;;;;;;5045726;28;20053;-63
2022/04/17 11:16:49;;;;;;;2.60;1.20;;;8.10;99.90;;;;;;5039607;28;20052;-63
2022/04/17 11:19:19;;;;;;;3.22;0.82;;;8.00;99.90;;;;;;5036956;28;20131;-63
2022/04/17 11:21:50;;;;;;;0.85;0.73;;;8.10;99.90;;;;;;5036700;28;20075;-63
2022/04/17 11:24:17;;;;;;;;;;;8.20;99.90;;;;;;5035715;28;20036;-64
2022/04/17 11:26:53;;;;;;;1.10;1.00;;;8.30;99.90;;;;;;5024557;28;19971;-63
2022/04/17 11:29:43;;;;;;;1.00;0.95;;;8.30;99.90;;;;;;5041509;28;20391;-63
2022/04/17 11:32:16;;;;;;;1.17;1.10;;;8.30;99.90;;;;;;5042713;28;20076;-64
2022/04/17 11:34:44;;;;;;;4.43;0.77;;;8.10;99.90;;;;;;5036233;28;20056;-63
2022/04/17 11:37:11;;;;;;;1.48;0.57;;;8.10;99.90;;;;;;5024916;28;20046;-63
2022/04/17 11:39:38;;;;;;;2.05;0.73;;;8.20;99.90;;;;;;5029639;28;20231;-63
2022/04/17 11:42:06;;;;;;;2.33;1.25;;;8.40;99.90;;;;;;5034219;28;20044;-64
2022/04/17 11:44:33;;;;;;;4.20;0.77;;;8.40;99.90;;;;;;5043682;28;20352;-63
2022/04/17 11:47:00;;;;;;;2.95;0.75;;;8.40;99.90;;;;;;5026005;28;20401;-64
2022/04/17 11:49:32;;;;;;;0.80;0.75;;;8.30;99.90;;;;;;5024998;28;20065;-63
2022/04/17 11:52:12;;;;;;;3.53;0.90;;;8.40;99.90;;;;;;5032820;28;20160;-63
2022/04/17 11:54:41;;;;;;;1.25;1.00;;;8.20;99.90;;;;;;5041311;28;20049;-63
2022/04/17 11:57:09;;;;;;;1.58;0.90;;;8.10;99.90;;;;;;5043553;28;20045;-66
2022/04/17 11:59:50;;;;;;;3.80;0.50;;;8.10;99.90;;;;;;5040675;28;20158;-63
2022/04/17 12:02:22;;;;;;;0.70;0.50;;;8.30;99.90;;;;;;5031035;28;20690;-63
2022/04/17 12:04:55;;;;;;;1.80;0.88;;;8.30;99.90;;;;;;5022432;28;20045;-65
2022/04/17 12:07:25;;;;;;;1.95;0.70;;;8.50;99.90;;;;;;5040445;28;20133;-65
2022/04/17 12:10:08;;;;;;;;;;;8.60;99.90;;;;;;5044125;28;20465;-63
2022/04/17 12:12:42;;;;;;;2.33;0.52;;;8.60;99.90;;;;;;5034089;28;19920;-65
2022/04/17 12:15:12;;;;;;;2.30;0.70;;;8.50;99.90;;;;;;5041213;28;20052;-63
2022/04/17 12:17:39;;;;;;;4.47;1.00;;;8.30;99.90;;;;;;5034173;28;20048;-66
2022/04/17 12:20:13;;;;;;;1.15;0.70;;;8.30;99.90;;;;;;5037262;28;20065;-68
2022/04/17 12:22:41;;;;;;;3.17;0.85;;;8.10;99.90;;;;;;5038094;28;20151;-65
2022/04/17 12:25:16;;;;;;;1.40;0.80;;;8.10;99.90;;;;;;5058335;28;20072;-64
2022/04/17 12:27:45;;;;;;;1.77;0.90;;;8.00;99.90;;;;;;5027189;28;20045;-63
2022/04/17 12:30:13;;;;;;;2.70;0.90;;;8.00;99.90;;;;;;5031481;28;20045;-63
2022/04/17 12:32:47;;;;;;;1.67;0.93;;;8.00;99.90;;;;;;5050541;28;20219;-64
2022/04/17 12:35:22;;;;;;;0.50;0.50;;;8.20;99.90;;;;;;5029778;28;20428;-63
2022/04/17 12:37:49;;;;;;;10.32;1.85;;;8.10;99.90;;;;;;5040217;28;20044;-65
2022/04/17 12:40:21;;;;;;;1.15;0.60;;;8.20;99.90;;;;;;5035719;28;20049;-63
2022/04/17 12:42:49;;;;;;;0.43;0.43;;;8.10;99.90;;;;;;5029409;28;20128;-63
2022/04/17 12:45:24;;;;;;;1.10;0.82;;;8.10;99.90;;;;;;5030422;28;20041;-63
2022/04/17 12:48:05;;;;;;;1.40;0.65;;;8.10;99.90;;;;;;5035866;28;20107;-64
2022/04/17 12:50:33;;;;;;;0.95;0.70;;;8.10;99.90;;;;;;5032074;28;20059;-64
2022/04/17 12:53:04;;;;;;;2.85;1.45;;;8.10;99.90;;;;;;5041298;28;20071;-65
2022/04/17 12:55:34;;;;;;;0.98;0.82;;;8.00;99.90;;;;;;5043863;28;20064;-64
2022/04/17 12:58:02;;;;;;;0.63;0.60;;;8.20;99.90;;;;;;5040289;28;20069;-64
2022/04/17 13:00:30;;;;;;;4.45;1.00;;;8.20;99.90;;;;;;5032755;28;20495;-62
2022/04/17 13:03:12;;;;;;;1.73;0.90;;;8.00;99.90;;;;;;5039824;28;20539;-64
2022/04/17 13:05:39;;;;;;;2.35;1.05;;;7.90;99.90;;;;;;5038318;28;20053;-63
2022/04/17 13:08:10;;;;;;;4.25;2.50;;;7.90;99.90;;;;;;5039816;28;20043;-63
2022/04/17 13:10:40;;;;;;;1.63;1.10;;;8.00;99.90;;;;;;5041729;28;20045;-65
2022/04/17 13:13:08;;;;;;;2.00;1.20;;;8.00;99.90;;;;;;5042997;28;20423;-63
2022/04/17 13:15:37;;;;;;;3.03;1.30;;;8.10;99.90;;;;;;5041427;28;20424;-63
2022/04/17 13:18:04;;;;;;;2.75;0.73;;;8.10;99.90;;;;;;5044742;28;20045;-63
2022/04/17 13:20:32;;;;;;;1.17;0.60;;;8.10;99.90;;;;;;5043227;28;20043;-64
2022/04/17 13:22:59;;;;;;;3.63;1.73;;;8.00;99.90;;;;;;5045044;28;20045;-63